createdAt,value
2023-05-18T00:00:45.067Z,1022.02
2023-05-18T00:01:45.388Z,1021.98
2023-05-18T00:02:45.768Z,1021.98
2023-05-18T00:03:46.039Z,1022.02
2023-05-18T00:04:46.394Z,1022.03
2023-05-18T00:05:46.602Z,1022.01
2023-05-18T00:06:46.812Z,1022.01
2023-05-18T00:07:47.117Z,1021.99
2023-05-18T00:08:47.436Z,1021.99
2023-05-18T00:09:47.857Z,1022.03
2023-05-18T00:10:48.029Z,1022.03
2023-05-18T00:11:48.338Z,1022.08
2023-05-18T00:12:48.650Z,1022.03
2023-05-18T00:13:48.949Z,1022.04
2023-05-18T00:14:49.262Z,1022.09
2023-05-18T00:15:49.630Z,1022.12
2023-05-18T00:16:49.926Z,1022.16
2023-05-18T00:17:50.338Z,1022.15
2023-05-18T00:18:50.535Z,1022.13
2023-05-18T00:19:50.843Z,1022.13
2023-05-18T00:20:51.136Z,1022.17
2023-05-18T00:21:51.442Z,1022.18
2023-05-18T00:22:51.770Z,1022.19
2023-05-18T00:23:52.077Z,1022.17
2023-05-18T00:24:52.388Z,1022.15
2023-05-18T00:25:52.675Z,1022.19
2023-05-18T00:26:53.013Z,1022.22
2023-05-18T00:27:53.293Z,1022.23
2023-05-18T00:28:53.596Z,1022.20
2023-05-18T00:29:53.942Z,1022.25
2023-05-18T00:30:54.274Z,1022.20
2023-05-18T00:31:54.630Z,1022.24
2023-05-18T00:32:54.893Z,1022.25
2023-05-18T00:33:55.058Z,1022.30
2023-05-18T00:34:55.389Z,1022.26
2023-05-18T00:35:55.708Z,1022.24
2023-05-18T00:36:55.979Z,1022.28
2023-05-18T00:37:56.301Z,1022.27
2023-05-18T00:38:56.610Z,1022.30
2023-05-18T00:39:56.900Z,1022.28
2023-05-18T00:40:57.235Z,1022.33
2023-05-18T00:41:57.564Z,1022.32
2023-05-18T00:42:57.910Z,1022.26
2023-05-18T00:43:58.211Z,1022.30
2023-05-18T00:44:58.501Z,1022.33
2023-05-18T00:45:58.839Z,1022.30
2023-05-18T00:46:59.134Z,1022.39
2023-05-18T00:47:59.492Z,1022.39
2023-05-18T00:48:59.755Z,1022.40
2023-05-18T00:50:00.042Z,1022.41
2023-05-18T00:51:00.346Z,1022.37
2023-05-18T00:52:00.655Z,1022.36
2023-05-18T00:53:00.973Z,1022.37
2023-05-18T00:54:01.303Z,1022.36
2023-05-18T00:55:01.591Z,1022.38
2023-05-18T00:56:01.906Z,1022.39
2023-05-18T00:57:02.218Z,1022.38
2023-05-18T00:58:02.660Z,1022.37
2023-05-18T00:59:02.786Z,1022.39
2023-05-18T01:00:03.074Z,1022.38
2023-05-18T01:01:03.430Z,1022.44
2023-05-18T01:02:03.706Z,1022.42
2023-05-18T01:03:04.151Z,1022.37
2023-05-18T01:04:04.286Z,1022.41
2023-05-18T01:05:04.587Z,1022.42
2023-05-18T01:06:04.867Z,1022.46
2023-05-18T01:07:05.177Z,1022.41
2023-05-18T01:08:05.459Z,1022.42
2023-05-18T01:09:05.806Z,1022.44
2023-05-18T01:10:06.114Z,1022.48
2023-05-18T01:11:06.411Z,1022.46
2023-05-18T01:12:06.732Z,1022.50
2023-05-18T01:13:07.020Z,1022.44
2023-05-18T01:14:07.341Z,1022.54
2023-05-18T01:15:07.617Z,1022.53
2023-05-18T01:16:07.924Z,1022.55
2023-05-18T01:17:08.305Z,1022.48
2023-05-18T01:18:08.496Z,1022.49
2023-05-18T01:19:08.784Z,1022.54
2023-05-18T01:20:09.083Z,1022.56
2023-05-18T01:21:09.399Z,1022.56
2023-05-18T01:22:09.705Z,1022.54
2023-05-18T01:23:10.042Z,1022.56
2023-05-18T01:24:10.349Z,1022.52
2023-05-18T01:25:10.638Z,1022.58
2023-05-18T01:26:10.963Z,1022.60
2023-05-18T01:27:11.284Z,1022.62
2023-05-18T01:28:11.562Z,1022.53
2023-05-18T01:29:11.870Z,1022.57
2023-05-18T01:30:12.188Z,1022.54
2023-05-18T01:31:12.591Z,1022.59
2023-05-18T01:32:12.733Z,1022.56
2023-05-18T01:33:13.026Z,1022.58
2023-05-18T01:34:13.330Z,1022.57
2023-05-18T01:35:13.649Z,1022.53
2023-05-18T01:36:13.962Z,1022.56
2023-05-18T01:37:14.236Z,1022.58
2023-05-18T01:38:14.548Z,1022.59
2023-05-18T01:39:14.842Z,1022.56
2023-05-18T01:40:15.206Z,1022.56
2023-05-18T01:41:15.480Z,1022.59
2023-05-18T01:42:15.823Z,1022.60
2023-05-18T01:43:16.114Z,1022.65
2023-05-18T01:44:16.434Z,1022.57
2023-05-18T01:45:16.755Z,1022.56
2023-05-18T01:46:17.101Z,1022.59
2023-05-18T01:47:17.411Z,1022.65
2023-05-18T01:48:17.717Z,1022.66
2023-05-18T01:49:18.013Z,1022.65
2023-05-18T01:50:18.302Z,1022.63
2023-05-18T01:51:18.634Z,1022.67
2023-05-18T01:52:18.936Z,1022.65
2023-05-18T01:53:19.319Z,1022.67
2023-05-18T01:54:19.462Z,1022.60
2023-05-18T01:55:19.746Z,1022.68
2023-05-18T01:56:20.037Z,1022.62
2023-05-18T01:57:20.330Z,1022.62
2023-05-18T01:58:20.670Z,1022.75
2023-05-18T01:59:20.972Z,1022.66
2023-05-18T02:00:21.276Z,1022.75
2023-05-18T02:01:21.631Z,1022.67
2023-05-18T02:02:22.074Z,1022.77
2023-05-18T02:03:22.435Z,1022.67
2023-05-18T02:04:22.554Z,1022.74
2023-05-18T02:05:22.839Z,1022.71
2023-05-18T02:06:23.162Z,1022.66
2023-05-18T02:07:23.434Z,1022.64
2023-05-18T02:08:23.745Z,1022.63
2023-05-18T02:09:24.054Z,1022.69
2023-05-18T02:10:24.352Z,1022.65
2023-05-18T02:11:24.665Z,1022.65
2023-05-18T02:12:24.970Z,1022.68
2023-05-18T02:13:25.288Z,1022.67
2023-05-18T02:14:25.617Z,1022.67
2023-05-18T02:15:25.876Z,1022.60
2023-05-18T02:16:26.217Z,1022.67
2023-05-18T02:17:26.530Z,1022.68
2023-05-18T02:18:26.734Z,1022.67
2023-05-18T02:19:27.061Z,1022.66
2023-05-18T02:20:29.732Z,1022.64
2023-05-18T02:21:27.676Z,1022.64
2023-05-18T02:22:28.021Z,1022.64
2023-05-18T02:23:28.202Z,1022.64
2023-05-18T02:24:28.489Z,1022.68
2023-05-18T02:25:28.989Z,1022.69
2023-05-18T02:26:29.131Z,1022.69
2023-05-18T02:27:29.452Z,1022.71
2023-05-18T02:28:29.754Z,1022.72
2023-05-18T02:29:30.058Z,1022.73
2023-05-18T02:30:30.338Z,1022.72
2023-05-18T02:31:30.692Z,1022.70
2023-05-18T02:32:30.957Z,1022.72
2023-05-18T02:33:31.231Z,1022.74
2023-05-18T02:34:31.567Z,1022.72
2023-05-18T02:35:32.072Z,1022.75
2023-05-18T02:36:32.155Z,1022.71
2023-05-18T02:37:32.471Z,1022.72
2023-05-18T02:38:32.790Z,1022.70
2023-05-18T02:39:33.110Z,1022.70
2023-05-18T02:40:33.429Z,1022.77
2023-05-18T02:41:33.738Z,1022.75
2023-05-18T02:42:34.060Z,1022.75
2023-05-18T02:43:34.339Z,1022.79
2023-05-18T02:44:34.697Z,1022.83
2023-05-18T02:45:35.069Z,1022.79
2023-05-18T02:46:35.266Z,1022.84
2023-05-18T02:47:35.624Z,1022.81
2023-05-18T02:48:35.925Z,1022.81
2023-05-18T02:49:36.249Z,1022.79
2023-05-18T02:50:36.573Z,1022.82
2023-05-18T02:51:36.907Z,1022.83
2023-05-18T02:52:37.220Z,1022.84
2023-05-18T02:53:37.530Z,1022.80
2023-05-18T02:54:37.870Z,1022.82
2023-05-18T02:55:38.189Z,1022.85
2023-05-18T02:56:38.498Z,1022.86
2023-05-18T02:57:38.820Z,1022.82
2023-05-18T02:58:39.170Z,1022.82
2023-05-18T02:59:39.504Z,1022.85
2023-05-18T03:00:39.820Z,1022.79
2023-05-18T03:01:40.262Z,1022.82
2023-05-18T03:02:40.521Z,1022.82
2023-05-18T03:03:40.805Z,1022.85
2023-05-18T03:04:40.999Z,1022.81
2023-05-18T03:05:41.194Z,1022.85
2023-05-18T03:06:41.513Z,1022.85
2023-05-18T03:07:41.852Z,1022.90
2023-05-18T03:08:42.194Z,1022.88
2023-05-18T03:09:42.519Z,1022.92
2023-05-18T03:10:42.761Z,1022.85
2023-05-18T03:11:43.085Z,1022.92
2023-05-18T03:12:43.418Z,1022.90
2023-05-18T03:13:43.747Z,1022.92
2023-05-18T03:14:44.065Z,1022.92
2023-05-18T03:15:44.397Z,1022.95
2023-05-18T03:16:44.788Z,1022.96
2023-05-18T03:17:45.039Z,1022.92
2023-05-18T03:18:45.274Z,1023.00
2023-05-18T03:19:45.478Z,1022.95
2023-05-18T03:20:45.709Z,1022.91
2023-05-18T03:21:46.055Z,1022.94
2023-05-18T03:22:46.395Z,1022.92
2023-05-18T03:23:46.609Z,1022.95
2023-05-18T03:24:46.919Z,1022.90
2023-05-18T03:25:47.180Z,1022.90
2023-05-18T03:26:47.541Z,1022.92
2023-05-18T03:27:47.729Z,1022.92
2023-05-18T03:28:48.063Z,1022.96
2023-05-18T03:29:48.388Z,1022.94
2023-05-18T03:30:48.696Z,1022.94
2023-05-18T03:31:48.904Z,1022.93
2023-05-18T03:32:49.139Z,1022.91
2023-05-18T03:33:49.340Z,1022.94
2023-05-18T03:34:49.682Z,1023.02
2023-05-18T03:35:50.032Z,1022.96
2023-05-18T03:36:50.381Z,1022.96
2023-05-18T03:37:50.605Z,1022.84
2023-05-18T03:38:50.945Z,1022.87
2023-05-18T03:39:51.198Z,1022.90
2023-05-18T03:40:51.412Z,1022.86
2023-05-18T03:41:51.658Z,1022.90
2023-05-18T03:42:51.885Z,1022.85
2023-05-18T03:43:52.112Z,1022.93
2023-05-18T03:44:52.360Z,1022.91
2023-05-18T03:45:52.762Z,1022.93
2023-05-18T03:46:53.039Z,1022.96
2023-05-18T03:47:53.207Z,1023.00
2023-05-18T03:48:53.433Z,1022.98
2023-05-18T03:49:53.654Z,1022.99
2023-05-18T03:50:54.011Z,1023.05
2023-05-18T03:51:54.380Z,1023.03
2023-05-18T03:52:54.466Z,1023.04
2023-05-18T03:53:54.676Z,1023.05
2023-05-18T03:54:54.947Z,1023.04
2023-05-18T03:55:55.283Z,1022.99
2023-05-18T03:56:55.518Z,1023.04
2023-05-18T03:57:55.869Z,1023.05
2023-05-18T03:58:56.221Z,1023.05
2023-05-18T03:59:56.453Z,1023.06
2023-05-18T04:00:56.682Z,1023.10
2023-05-18T04:01:57.036Z,1023.12
2023-05-18T04:02:57.412Z,1023.15
2023-05-18T04:03:57.742Z,1023.11
2023-05-18T04:04:57.910Z,1023.13
2023-05-18T04:05:58.129Z,1023.17
2023-05-18T04:06:58.404Z,1023.19
2023-05-18T04:07:58.634Z,1023.18
2023-05-18T04:08:58.878Z,1023.15
2023-05-18T04:09:59.130Z,1023.13
2023-05-18T04:10:59.350Z,1023.14
2023-05-18T04:11:59.600Z,1023.15
2023-05-18T04:12:59.868Z,1023.16
2023-05-18T04:14:00.150Z,1023.16
2023-05-18T04:15:00.407Z,1023.19
2023-05-18T04:16:00.730Z,1023.18
2023-05-18T04:17:00.993Z,1023.15
2023-05-18T04:18:01.279Z,1023.16
2023-05-18T04:19:01.621Z,1023.18
2023-05-18T04:20:01.924Z,1023.14
2023-05-18T04:21:02.150Z,1023.21
2023-05-18T04:22:02.428Z,1023.20
2023-05-18T04:23:02.753Z,1023.21
2023-05-18T04:24:03.041Z,1023.21
2023-05-18T04:25:03.347Z,1023.25
2023-05-18T04:26:03.656Z,1023.26
2023-05-18T04:27:03.953Z,1023.23
2023-05-18T04:28:04.282Z,1023.27
2023-05-18T04:29:04.624Z,1023.28
2023-05-18T04:30:04.926Z,1023.28
2023-05-18T04:31:05.263Z,1023.28
2023-05-18T04:32:05.648Z,1023.32
2023-05-18T04:33:05.934Z,1023.27
2023-05-18T04:34:06.234Z,1023.26
2023-05-18T04:35:06.554Z,1023.28
2023-05-18T04:36:06.897Z,1023.27
2023-05-18T04:37:07.228Z,1023.31
2023-05-18T04:38:07.561Z,1023.31
2023-05-18T04:39:07.975Z,1023.29
2023-05-18T04:40:08.123Z,1023.33
2023-05-18T04:41:08.376Z,1023.28
2023-05-18T04:42:08.710Z,1023.28
2023-05-18T04:43:09.056Z,1023.31
2023-05-18T04:44:09.386Z,1023.36
2023-05-18T04:45:09.601Z,1023.32
2023-05-18T04:46:09.912Z,1023.39
2023-05-18T04:47:10.124Z,1023.37
2023-05-18T04:48:10.384Z,1023.36
2023-05-18T04:49:18.164Z,1023.32
2023-05-18T04:50:10.968Z,1023.30
2023-05-18T04:51:11.228Z,1023.35
2023-05-18T04:52:11.469Z,1023.35
2023-05-18T04:53:11.697Z,1023.39
2023-05-18T04:54:11.901Z,1023.38
2023-05-18T04:55:12.161Z,1023.40
2023-05-18T04:56:12.413Z,1023.34
2023-05-18T04:57:12.680Z,1023.30
2023-05-18T04:58:12.930Z,1023.33
2023-05-18T04:59:13.179Z,1023.30
2023-05-18T05:00:13.442Z,1023.24
2023-05-18T05:01:13.754Z,1023.32
2023-05-18T05:02:14.048Z,1023.31
2023-05-18T05:03:14.327Z,1023.30
2023-05-18T05:04:14.581Z,1023.32
2023-05-18T05:05:14.812Z,1023.32
2023-05-18T05:06:15.145Z,1023.26
2023-05-18T05:07:15.356Z,1023.33
2023-05-18T05:08:15.640Z,1023.24
2023-05-18T05:09:15.870Z,1023.24
2023-05-18T05:10:16.115Z,1023.27
2023-05-18T05:11:16.376Z,1023.21
2023-05-18T05:12:16.587Z,1023.24
2023-05-18T05:13:16.844Z,1023.21
2023-05-18T05:14:17.181Z,1023.22
2023-05-18T05:15:17.422Z,1023.25
2023-05-18T05:16:17.741Z,1023.26
2023-05-18T05:17:18.006Z,1023.25
2023-05-18T05:18:18.302Z,1023.24
2023-05-18T05:19:18.573Z,1023.26
2023-05-18T05:20:18.807Z,1023.25
2023-05-18T05:21:19.044Z,1023.31
2023-05-18T05:22:19.314Z,1023.28
2023-05-18T05:23:19.592Z,1023.26
2023-05-18T05:24:19.870Z,1023.27
2023-05-18T05:25:20.159Z,1023.28
2023-05-18T05:26:20.415Z,1023.30
2023-05-18T05:27:20.662Z,1023.33
2023-05-18T05:28:21.101Z,1023.28
2023-05-18T05:29:21.228Z,1023.31
2023-05-18T05:30:21.488Z,1023.33
2023-05-18T05:31:21.779Z,1023.33
2023-05-18T05:32:21.977Z,1023.37
2023-05-18T05:33:22.222Z,1023.36
2023-05-18T05:34:22.464Z,1023.38
2023-05-18T05:35:22.720Z,1023.38
2023-05-18T05:36:22.960Z,1023.34
2023-05-18T05:37:23.244Z,1023.33
2023-05-18T05:38:23.502Z,1023.33
2023-05-18T05:39:23.740Z,1023.36
2023-05-18T05:40:23.992Z,1023.38
2023-05-18T05:41:24.224Z,1023.39
2023-05-18T05:42:24.476Z,1023.37
2023-05-18T05:43:24.722Z,1023.35
2023-05-18T05:44:24.987Z,1023.33
2023-05-18T05:45:25.218Z,1023.35
2023-05-18T05:46:25.525Z,1023.30
2023-05-18T05:47:25.848Z,1023.33
2023-05-18T05:48:26.070Z,1023.34
2023-05-18T05:49:26.294Z,1023.33
2023-05-18T05:50:26.568Z,1023.32
2023-05-18T05:51:26.794Z,1023.36
2023-05-18T05:52:27.052Z,1023.37
2023-05-18T05:53:27.322Z,1023.31
2023-05-18T05:54:27.571Z,1023.37
2023-05-18T05:55:27.815Z,1023.35
2023-05-18T05:56:28.072Z,1023.36
2023-05-18T05:57:28.327Z,1023.39
2023-05-18T05:58:28.597Z,1023.38
2023-05-18T05:59:28.874Z,1023.40
2023-05-18T06:00:29.130Z,1023.42
2023-05-18T06:01:29.398Z,1023.45
2023-05-18T06:02:29.831Z,1023.38
2023-05-18T06:03:29.900Z,1023.42
2023-05-18T06:04:30.217Z,1023.45
2023-05-18T06:05:30.706Z,1023.46
2023-05-18T06:06:30.777Z,1023.44
2023-05-18T06:07:31.039Z,1023.48
2023-05-18T06:08:31.294Z,1023.48
2023-05-18T06:09:31.542Z,1023.42
2023-05-18T06:10:31.836Z,1023.47
2023-05-18T06:11:32.148Z,1023.50
2023-05-18T06:12:32.435Z,1023.50
2023-05-18T06:13:32.697Z,1023.51
2023-05-18T06:14:32.957Z,1023.49
2023-05-18T06:15:33.395Z,1023.50
2023-05-18T06:16:33.593Z,1023.48
2023-05-18T06:17:33.846Z,1023.50
2023-05-18T06:18:34.103Z,1023.50
2023-05-18T06:19:34.384Z,1023.51
2023-05-18T06:20:34.658Z,1023.43
2023-05-18T06:21:34.923Z,1023.41
2023-05-18T06:22:35.184Z,1023.43
2023-05-18T06:23:35.420Z,1023.46
2023-05-18T06:24:35.685Z,1023.48
2023-05-18T06:25:35.942Z,1023.54
2023-05-18T06:26:36.194Z,1023.48
2023-05-18T06:27:36.433Z,1023.53
2023-05-18T06:28:36.687Z,1023.59
2023-05-18T06:29:37.027Z,1023.50
2023-05-18T06:30:37.235Z,1023.48
2023-05-18T06:31:37.578Z,1023.46
2023-05-18T06:32:37.885Z,1023.57
2023-05-18T06:33:38.118Z,1023.52
2023-05-18T06:34:38.371Z,1023.47
2023-05-18T06:35:38.654Z,1023.48
2023-05-18T06:36:38.925Z,1023.53
2023-05-18T06:37:39.181Z,1023.53
2023-05-18T06:38:39.446Z,1023.62
2023-05-18T06:39:39.705Z,1023.61
2023-05-18T06:40:39.981Z,1023.60
2023-05-18T06:41:40.210Z,1023.63
2023-05-18T06:42:40.474Z,1023.54
2023-05-18T06:43:40.752Z,1023.59
2023-05-18T06:44:41.044Z,1023.53
2023-05-18T06:45:41.262Z,1023.67
2023-05-18T06:46:41.671Z,1023.66
2023-05-18T06:47:41.852Z,1023.64
2023-05-18T06:48:42.057Z,1023.66
2023-05-18T06:49:42.326Z,1023.67
2023-05-18T06:50:42.585Z,1023.59
2023-05-18T06:51:42.862Z,1023.67
2023-05-18T06:52:43.116Z,1023.57
2023-05-18T06:53:43.384Z,1023.56
2023-05-18T06:54:43.640Z,1023.54
2023-05-18T06:55:43.868Z,1023.57
2023-05-18T06:56:44.085Z,1023.54
2023-05-18T06:57:44.324Z,1023.57
2023-05-18T06:58:44.543Z,1023.62
2023-05-18T06:59:44.934Z,1023.53
2023-05-18T07:00:45.160Z,1023.69
2023-05-18T07:01:45.467Z,1023.64
2023-05-18T07:02:45.844Z,1023.67
2023-05-18T07:03:46.012Z,1023.66
2023-05-18T07:04:46.278Z,1023.71
2023-05-18T07:05:46.529Z,1023.69
2023-05-18T07:06:46.791Z,1023.76
2023-05-18T07:07:47.080Z,1023.74
2023-05-18T07:08:47.363Z,1023.77
2023-05-18T07:09:47.604Z,1023.77
2023-05-18T07:10:47.848Z,1023.82
2023-05-18T07:11:48.096Z,1023.76
2023-05-18T07:12:48.413Z,1023.73
2023-05-18T07:13:48.628Z,1023.82
2023-05-18T07:14:49.017Z,1023.77
2023-05-18T07:15:49.317Z,1023.78
2023-05-18T07:16:49.528Z,1023.75
2023-05-18T07:17:49.769Z,1023.85
2023-05-18T07:18:50.141Z,1023.80
2023-05-18T07:19:50.349Z,1023.78
2023-05-18T07:20:50.640Z,1023.73
2023-05-18T07:21:50.883Z,1023.72
2023-05-18T07:22:51.108Z,1023.69
2023-05-18T07:23:51.485Z,1023.77
2023-05-18T07:24:51.761Z,1023.76
2023-05-18T07:25:52.021Z,1023.79
2023-05-18T07:26:52.195Z,1023.77
2023-05-18T07:27:52.607Z,1023.77
2023-05-18T07:28:52.833Z,1023.70
2023-05-18T07:29:53.080Z,1023.71
2023-05-18T07:30:53.310Z,1023.75
2023-05-18T07:31:53.677Z,1023.79
2023-05-18T07:32:53.942Z,1023.76
2023-05-18T07:33:54.197Z,1023.84
2023-05-18T07:34:54.432Z,1023.82
2023-05-18T07:35:54.644Z,1023.75
2023-05-18T07:36:55.066Z,1023.77
2023-05-18T07:37:55.305Z,1023.74
2023-05-18T07:38:55.705Z,1023.79
2023-05-18T07:39:55.776Z,1023.78
2023-05-18T07:40:56.035Z,1023.74
2023-05-18T07:41:56.276Z,1023.70
2023-05-18T07:42:56.505Z,1023.73
2023-05-18T07:43:56.761Z,1023.75
2023-05-18T07:44:57.001Z,1023.82
2023-05-18T07:45:57.235Z,1023.75
2023-05-18T07:46:57.623Z,1023.74
2023-05-18T07:47:57.990Z,1023.75
2023-05-18T07:48:58.205Z,1023.73
2023-05-18T07:49:58.437Z,1023.74
2023-05-18T07:50:58.669Z,1023.74
2023-05-18T07:51:58.893Z,1023.80
2023-05-18T07:52:59.165Z,1023.74
2023-05-18T07:53:59.407Z,1023.78
2023-05-18T07:54:59.600Z,1023.83
2023-05-18T07:55:59.962Z,1023.76
2023-05-18T07:57:00.793Z,1023.82
2023-05-18T07:58:00.505Z,1023.83
2023-05-18T07:59:00.715Z,1023.84
2023-05-18T08:00:01.088Z,1023.87
2023-05-18T08:01:01.309Z,1023.80
2023-05-18T08:02:01.589Z,1023.81
2023-05-18T08:03:02.008Z,1023.71
2023-05-18T08:04:02.353Z,1023.81
2023-05-18T08:05:02.556Z,1023.74
2023-05-18T08:06:02.799Z,1023.82
2023-05-18T08:07:03.067Z,1023.82
2023-05-18T08:08:05.863Z,1023.82
2023-05-18T08:09:03.651Z,1023.79
2023-05-18T08:10:03.876Z,1023.82
2023-05-18T08:11:04.182Z,1023.82
2023-05-18T08:12:04.426Z,1023.81
2023-05-18T08:13:04.679Z,1023.78
2023-05-18T08:14:04.908Z,1023.81
2023-05-18T08:15:05.149Z,1023.80
2023-05-18T08:16:11.771Z,1023.78
2023-05-18T08:17:06.660Z,1023.76
2023-05-18T08:18:06.052Z,1023.80
2023-05-18T08:19:06.280Z,1023.82
2023-05-18T08:20:06.478Z,1023.83
2023-05-18T08:21:06.730Z,1023.80
2023-05-18T08:22:06.954Z,1023.79
2023-05-18T08:23:07.181Z,1023.78
2023-05-18T08:24:07.408Z,1023.78
2023-05-18T08:25:07.802Z,1023.83
2023-05-18T08:26:08.044Z,1023.90
2023-05-18T08:27:08.286Z,1023.81
2023-05-18T08:28:08.540Z,1023.84
2023-05-18T08:29:08.771Z,1023.83
2023-05-18T08:30:09.028Z,1023.87
2023-05-18T08:31:09.284Z,1023.87
2023-05-18T08:32:09.556Z,1023.93
2023-05-18T08:33:09.838Z,1023.92
2023-05-18T08:34:10.043Z,1023.85
2023-05-18T08:35:10.476Z,1023.90
2023-05-18T08:36:10.667Z,1023.86
2023-05-18T08:37:10.924Z,1023.79
2023-05-18T08:38:11.200Z,1023.90
2023-05-18T08:39:11.457Z,1023.85
2023-05-18T08:40:11.694Z,1023.83
2023-05-18T08:41:12.719Z,1023.82
2023-05-18T08:42:12.265Z,1023.82
2023-05-18T08:43:12.501Z,1023.92
2023-05-18T08:44:12.738Z,1023.88
2023-05-18T08:45:13.011Z,1023.89
2023-05-18T08:46:13.218Z,1023.82
2023-05-18T08:47:13.491Z,1023.86
2023-05-18T08:48:13.793Z,1023.82
2023-05-18T08:49:14.144Z,1023.87
2023-05-18T08:50:14.326Z,1023.85
2023-05-18T08:51:14.560Z,1023.87
2023-05-18T08:52:14.816Z,1023.88
2023-05-18T08:53:15.069Z,1023.92
2023-05-18T08:54:15.310Z,1023.86
2023-05-18T08:55:15.533Z,1023.84
2023-05-18T08:56:15.796Z,1023.94
2023-05-18T08:57:16.027Z,1023.87
2023-05-18T08:58:16.248Z,1023.86
2023-05-18T08:59:16.493Z,1023.91
2023-05-18T09:00:16.723Z,1023.91
2023-05-18T09:01:16.991Z,1023.93
2023-05-18T09:02:17.225Z,1023.95
2023-05-18T09:03:17.596Z,1023.93
2023-05-18T09:04:17.690Z,1023.87
2023-05-18T09:05:18.020Z,1023.87
2023-05-18T09:06:18.256Z,1023.79
2023-05-18T09:07:18.480Z,1023.89
2023-05-18T09:08:18.724Z,1023.80
2023-05-18T09:09:18.986Z,1023.83
2023-05-18T09:10:19.209Z,1023.77
2023-05-18T09:11:19.426Z,1023.79
2023-05-18T09:12:19.722Z,1023.81
2023-05-18T09:13:20.006Z,1023.90
2023-05-18T09:14:20.240Z,1023.84
2023-05-18T09:15:20.470Z,1023.84
2023-05-18T09:16:20.715Z,1023.67
2023-05-18T09:17:20.952Z,1023.87
2023-05-18T09:18:23.930Z,1023.82
2023-05-18T09:19:21.624Z,1023.79
2023-05-18T09:20:21.908Z,1023.82
2023-05-18T09:21:22.109Z,1023.76
2023-05-18T09:22:22.363Z,1023.73
2023-05-18T09:23:22.605Z,1023.72
2023-05-18T09:24:24.788Z,1023.73
2023-05-18T09:25:23.032Z,1023.74
2023-05-18T09:26:23.327Z,1023.75
2023-05-18T09:27:23.537Z,1023.72
2023-05-18T09:28:23.920Z,1023.74
2023-05-18T09:29:24.141Z,1023.72
2023-05-18T09:30:24.500Z,1023.73
2023-05-18T09:31:25.050Z,1023.71
2023-05-18T09:32:25.065Z,1023.69
2023-05-18T09:33:25.431Z,1023.70
2023-05-18T09:34:25.636Z,1023.69
2023-05-18T09:35:26.008Z,1023.64
2023-05-18T09:36:26.151Z,1023.71
2023-05-18T09:37:26.323Z,1023.75
2023-05-18T09:38:26.570Z,1023.76
2023-05-18T09:39:26.768Z,1023.74
2023-05-18T09:40:27.067Z,1023.69
2023-05-18T09:41:27.322Z,1023.70
2023-05-18T09:42:27.579Z,1023.65
2023-05-18T09:43:27.809Z,1023.51
2023-05-18T09:44:28.096Z,1023.66
2023-05-18T09:45:28.620Z,1023.63
2023-05-18T09:46:28.708Z,1023.66
2023-05-18T09:47:28.930Z,1023.64
2023-05-18T09:48:29.198Z,1023.69
2023-05-18T09:49:29.486Z,1023.65
2023-05-18T09:50:29.735Z,1023.67
2023-05-18T09:51:29.939Z,1023.60
2023-05-18T09:52:30.235Z,1023.61
2023-05-18T09:53:30.453Z,1023.60
2023-05-18T09:54:30.717Z,1023.65
2023-05-18T09:55:31.189Z,1023.68
2023-05-18T09:56:31.245Z,1023.67
2023-05-18T09:57:31.495Z,1023.65
2023-05-18T09:58:31.826Z,1023.65
2023-05-18T09:59:32.082Z,1023.70
2023-05-18T10:00:32.310Z,1023.64
2023-05-18T10:01:32.598Z,1023.62
2023-05-18T10:02:32.839Z,1023.60
2023-05-18T10:03:33.055Z,1023.62
2023-05-18T10:04:33.356Z,1023.60
2023-05-18T10:05:35.754Z,1023.64
2023-05-18T10:06:33.850Z,1023.63
2023-05-18T10:07:34.210Z,1023.61
2023-05-18T10:08:34.463Z,1023.64
2023-05-18T10:09:34.705Z,1023.68
2023-05-18T10:10:34.942Z,1023.60
2023-05-18T10:11:35.193Z,1023.58
2023-05-18T10:12:35.460Z,1023.63
2023-05-18T10:13:35.703Z,1023.56
2023-05-18T10:14:35.936Z,1023.51
2023-05-18T10:15:36.166Z,1023.56
2023-05-18T10:16:36.489Z,1023.55
2023-05-18T10:17:36.787Z,1023.58
2023-05-18T10:18:36.979Z,1023.55
2023-05-18T10:19:37.228Z,1023.61
2023-05-18T10:20:37.514Z,1023.56
2023-05-18T10:21:37.750Z,1023.50
2023-05-18T10:22:38.005Z,1023.60
2023-05-18T10:23:38.240Z,1023.56
2023-05-18T10:24:38.475Z,1023.53
2023-05-18T10:25:38.767Z,1023.47
2023-05-18T10:26:38.990Z,1023.49
2023-05-18T10:27:39.255Z,1023.47
2023-05-18T10:28:39.558Z,1023.52
2023-05-18T10:29:39.793Z,1023.52
2023-05-18T10:30:40.079Z,1023.47
2023-05-18T10:31:40.305Z,1023.48
2023-05-18T10:32:40.560Z,1023.46
2023-05-18T10:33:40.825Z,1023.47
2023-05-18T10:34:41.054Z,1023.45
2023-05-18T10:35:41.327Z,1023.43
2023-05-18T10:36:41.554Z,1023.40
2023-05-18T10:37:41.790Z,1023.39
2023-05-18T10:38:42.038Z,1023.39
2023-05-18T10:39:42.288Z,1023.44
2023-05-18T10:40:42.513Z,1023.36
2023-05-18T10:41:42.744Z,1023.41
2023-05-18T10:42:42.996Z,1023.45
2023-05-18T10:43:43.226Z,1023.47
2023-05-18T10:44:43.436Z,1023.40
2023-05-18T10:45:43.700Z,1023.45
2023-05-18T10:46:43.987Z,1023.40
2023-05-18T10:47:44.408Z,1023.44
2023-05-18T10:48:45.549Z,1023.44
2023-05-18T10:49:44.709Z,1023.35
2023-05-18T10:50:44.945Z,1023.37
2023-05-18T10:51:45.170Z,1023.33
2023-05-18T10:52:45.443Z,1023.36
2023-05-18T10:53:45.660Z,1023.34
2023-05-18T10:54:45.900Z,1023.31
2023-05-18T10:55:46.158Z,1023.24
2023-05-18T10:56:46.366Z,1023.28
2023-05-18T10:57:46.724Z,1023.24
2023-05-18T10:58:46.959Z,1023.27
2023-05-18T10:59:48.531Z,1023.27
2023-05-18T11:00:47.455Z,1023.23
2023-05-18T11:01:47.749Z,1023.27
2023-05-18T11:02:47.984Z,1023.24
2023-05-18T11:03:48.233Z,1023.25
2023-05-18T11:04:48.525Z,1023.34
2023-05-18T11:05:48.797Z,1023.26
2023-05-18T11:06:49.035Z,1023.27
2023-05-18T11:07:49.263Z,1023.24
2023-05-18T11:08:49.528Z,1023.30
2023-05-18T11:09:49.736Z,1023.32
2023-05-18T11:10:49.977Z,1023.29
2023-05-18T11:11:50.227Z,1023.37
2023-05-18T11:12:50.441Z,1023.36
2023-05-18T11:13:50.713Z,1023.35
2023-05-18T11:14:50.928Z,1023.25
2023-05-18T11:15:51.228Z,1023.29
2023-05-18T11:16:51.588Z,1023.30
2023-05-18T11:17:51.766Z,1023.29
2023-05-18T11:18:52.146Z,1023.24
2023-05-18T11:19:52.288Z,1023.28
2023-05-18T11:20:52.530Z,1023.26
2023-05-18T11:21:52.782Z,1023.24
2023-05-18T11:22:53.105Z,1023.23
2023-05-18T11:23:53.329Z,1023.25
2023-05-18T11:24:53.586Z,1023.25
2023-05-18T11:25:53.818Z,1023.25
2023-05-18T11:26:54.143Z,1023.18
2023-05-18T11:27:54.357Z,1023.18
2023-05-18T11:28:54.626Z,1023.23
2023-05-18T11:30:07.722Z,1023.34
2023-05-18T11:30:56.103Z,1023.22
2023-05-18T11:31:56.084Z,1023.23
2023-05-18T11:32:55.789Z,1023.35
2023-05-18T11:33:56.019Z,1023.26
2023-05-18T11:34:56.276Z,1023.18
2023-05-18T11:35:56.477Z,1023.18
2023-05-18T11:36:56.759Z,1023.11
2023-05-18T11:37:56.990Z,1023.13
2023-05-18T11:38:57.335Z,1023.24
2023-05-18T11:40:02.564Z,1023.19
2023-05-18T11:40:59.058Z,1023.21
2023-05-18T11:41:58.371Z,1023.22
2023-05-18T11:42:58.599Z,1023.17
2023-05-18T11:43:58.862Z,1023.21
2023-05-18T11:44:59.102Z,1023.19
2023-05-18T11:45:59.678Z,1023.28
2023-05-18T11:46:59.608Z,1023.21
2023-05-18T11:47:59.920Z,1023.15
2023-05-18T11:49:00.175Z,1023.22
2023-05-18T11:50:00.413Z,1023.25
2023-05-18T11:51:00.667Z,1023.14
2023-05-18T11:52:00.944Z,1023.15
2023-05-18T11:53:01.162Z,1023.11
2023-05-18T11:54:01.429Z,1023.09
2023-05-18T11:55:01.711Z,1023.11
2023-05-18T11:56:01.940Z,1023.11
2023-05-18T11:57:02.206Z,1023.09
2023-05-18T11:58:02.404Z,1023.12
2023-05-18T11:59:02.779Z,1023.07
2023-05-18T12:00:03.027Z,1023.08
2023-05-18T12:01:03.275Z,1023.11
2023-05-18T12:02:03.581Z,1023.15
2023-05-18T12:03:04.259Z,1023.11
2023-05-18T12:04:04.153Z,1023.06
2023-05-18T12:05:04.352Z,1023.07
2023-05-18T12:06:04.595Z,1023.09
2023-05-18T12:07:04.832Z,1023.09
2023-05-18T12:08:05.081Z,1023.14
2023-05-18T12:09:05.303Z,1023.11